createdAt,value
2023-03-13T00:02:30.072Z,98.73
2023-03-13T00:05:00.389Z,98.07
2023-03-13T00:07:30.714Z,97.88
2023-03-13T00:10:01.305Z,97.72
2023-03-13T00:12:31.925Z,97.99
2023-03-13T00:15:02.158Z,98.73
2023-03-13T00:17:32.779Z,98.67
2023-03-13T00:20:03.490Z,98.88
2023-03-13T00:22:33.991Z,98.53
2023-03-13T00:25:04.760Z,97.64
2023-03-13T00:27:35.219Z,98.45
2023-03-13T00:30:05.529Z,98.82
2023-03-13T00:32:35.919Z,100.00
2023-03-13T00:35:06.464Z,99.65
2023-03-13T00:37:37.110Z,99.47
2023-03-13T00:40:07.707Z,100.00
2023-03-13T00:42:38.344Z,99.19
2023-03-13T00:45:08.936Z,100.00
2023-03-13T00:47:39.574Z,99.14
2023-03-13T00:50:10.397Z,100.00
2023-03-13T00:52:41.040Z,99.95
2023-03-13T00:55:11.681Z,100.00
2023-03-13T00:57:42.287Z,100.00
2023-03-13T01:00:12.917Z,99.66
2023-03-13T01:02:43.664Z,100.00
2023-03-13T01:05:14.117Z,100.00
2023-03-13T01:07:44.745Z,100.00
2023-03-13T01:10:15.472Z,100.00
2023-03-13T01:12:45.429Z,100.00
2023-03-13T01:15:16.039Z,100.00
2023-03-13T01:17:46.733Z,100.00
2023-03-13T01:20:17.290Z,100.00
2023-03-13T01:22:48.023Z,100.00
2023-03-13T01:25:18.527Z,100.00
2023-03-13T01:27:48.859Z,100.00
2023-03-13T01:30:19.117Z,100.00
2023-03-13T01:32:50.117Z,100.00
2023-03-13T01:35:20.720Z,100.00
2023-03-13T01:37:51.290Z,100.00
2023-03-13T01:40:21.912Z,100.00
2023-03-13T01:42:52.555Z,100.00
2023-03-13T01:45:23.145Z,100.00
2023-03-13T01:47:53.788Z,100.00
2023-03-13T01:50:24.443Z,100.00
2023-03-13T01:52:55.055Z,100.00
2023-03-13T01:55:25.656Z,100.00
2023-03-13T01:57:56.486Z,100.00
2023-03-13T02:00:27.096Z,100.00
2023-03-13T02:02:57.831Z,100.00
2023-03-13T02:05:28.309Z,100.00
2023-03-13T02:07:58.663Z,100.00
2023-03-13T02:10:29.280Z,100.00
2023-03-13T02:12:59.909Z,100.00
2023-03-13T02:15:30.252Z,100.00
2023-03-13T02:18:00.616Z,100.00
2023-03-13T02:20:31.107Z,100.00
2023-03-13T02:23:01.741Z,100.00
2023-03-13T02:25:32.399Z,100.00
2023-03-13T02:28:02.678Z,100.00
2023-03-13T02:30:33.330Z,100.00
2023-03-13T02:33:03.961Z,100.00
2023-03-13T02:35:34.560Z,100.00
2023-03-13T02:38:04.899Z,100.00
2023-03-13T02:40:35.542Z,100.00
2023-03-13T02:43:05.829Z,100.00
2023-03-13T02:45:36.510Z,100.00
2023-03-13T02:48:07.084Z,100.00
2023-03-13T02:50:37.667Z,100.00
2023-03-13T02:53:08.054Z,100.00
2023-03-13T02:55:38.648Z,100.00
2023-03-13T02:58:09.263Z,100.00
2023-03-13T03:00:39.903Z,100.00
2023-03-13T03:03:10.500Z,100.00
2023-03-13T03:05:41.109Z,100.00
2023-03-13T03:08:11.786Z,100.00
2023-03-13T03:10:42.358Z,100.00
2023-03-13T03:13:12.944Z,100.00
2023-03-13T03:15:43.578Z,100.00
2023-03-13T03:18:14.206Z,100.00
2023-03-13T03:20:47.428Z,100.00
2023-03-13T03:23:15.407Z,100.00
2023-03-13T03:25:46.014Z,100.00
2023-03-13T03:28:16.622Z,100.00
2023-03-13T03:30:47.225Z,100.00
2023-03-13T03:33:17.845Z,100.00
2023-03-13T03:35:48.502Z,100.00
2023-03-13T03:38:19.076Z,100.00
2023-03-13T03:40:49.659Z,100.00
2023-03-13T03:43:20.335Z,100.00
2023-03-13T03:45:50.904Z,100.00
2023-03-13T03:48:21.583Z,100.00
2023-03-13T03:50:52.059Z,100.00
2023-03-13T03:53:22.668Z,100.00
2023-03-13T03:55:53.273Z,100.00
2023-03-13T03:58:23.867Z,100.00
2023-03-13T04:00:54.443Z,100.00
2023-03-13T04:03:25.158Z,100.00
2023-03-13T04:05:55.704Z,100.00
2023-03-13T04:08:26.252Z,100.00
2023-03-13T04:10:56.810Z,100.00
2023-03-13T04:13:27.394Z,100.00
2023-03-13T04:15:57.713Z,100.00
2023-03-13T04:18:28.290Z,100.00
2023-03-13T04:20:58.858Z,100.00
2023-03-13T04:23:29.488Z,100.00
2023-03-13T04:25:59.684Z,100.00
2023-03-13T04:28:30.364Z,100.00
2023-03-13T04:31:00.966Z,100.00
2023-03-13T04:33:31.447Z,100.00
2023-03-13T04:36:02.030Z,100.00
2023-03-13T04:38:32.544Z,100.00
2023-03-13T04:41:03.118Z,100.00
2023-03-13T04:43:33.665Z,100.00
2023-03-13T04:46:04.366Z,100.00
2023-03-13T04:48:34.796Z,100.00
2023-03-13T04:51:05.369Z,100.00
2023-03-13T04:53:35.950Z,100.00
2023-03-13T04:56:06.505Z,100.00
2023-03-13T04:58:37.076Z,100.00
2023-03-13T05:01:07.710Z,100.00
2023-03-13T05:03:38.212Z,100.00
2023-03-13T05:06:08.773Z,100.00
2023-03-13T05:08:39.343Z,100.00
2023-03-13T05:11:09.894Z,100.00
2023-03-13T05:13:40.447Z,100.00
2023-03-13T05:16:11.062Z,100.00
2023-03-13T05:18:41.590Z,100.00
2023-03-13T05:21:12.104Z,100.00
2023-03-13T05:23:42.713Z,100.00
2023-03-13T05:26:13.224Z,100.00
2023-03-13T05:28:43.815Z,100.00
2023-03-13T05:31:14.525Z,100.00
2023-03-13T05:33:44.886Z,100.00
2023-03-13T05:36:15.420Z,100.00
2023-03-13T05:38:45.964Z,100.00
2023-03-13T05:41:16.527Z,100.00
2023-03-13T05:43:47.067Z,100.00
2023-03-13T05:46:17.903Z,100.00
2023-03-13T05:48:49.950Z,100.00
2023-03-13T05:51:18.706Z,100.00
2023-03-13T05:53:49.280Z,100.00
2023-03-13T05:56:19.833Z,100.00
2023-03-13T05:58:50.377Z,100.00
2023-03-13T06:01:20.905Z,100.00
2023-03-13T06:03:51.612Z,100.00
2023-03-13T06:06:21.976Z,100.00
2023-03-13T06:08:52.538Z,100.00
2023-03-13T06:11:23.096Z,100.00
2023-03-13T06:13:53.592Z,100.00
2023-03-13T06:16:24.204Z,100.00
2023-03-13T06:18:54.654Z,100.00
2023-03-13T06:21:25.177Z,100.00
2023-03-13T06:23:55.766Z,100.00
2023-03-13T06:26:26.278Z,100.00
2023-03-13T06:28:56.809Z,100.00
2023-03-13T06:31:27.409Z,100.00
2023-03-13T06:33:57.879Z,100.00
2023-03-13T06:36:28.453Z,100.00
2023-03-13T06:38:58.975Z,100.00
2023-03-13T06:41:29.509Z,100.00
2023-03-13T06:44:00.060Z,100.00
2023-03-13T06:46:30.579Z,100.00
2023-03-13T06:49:01.099Z,100.00
2023-03-13T06:51:31.618Z,100.00
2023-03-13T06:54:02.156Z,100.00
2023-03-13T06:56:32.444Z,100.00
2023-03-13T06:59:02.906Z,100.00
2023-03-13T07:01:33.419Z,100.00
2023-03-13T07:04:04.006Z,100.00
2023-03-13T07:06:34.461Z,100.00
2023-03-13T07:09:04.728Z,100.00
2023-03-13T07:11:35.317Z,100.00
2023-03-13T07:14:16.469Z,100.00
2023-03-13T07:16:36.418Z,100.00
2023-03-13T07:19:06.546Z,100.00
2023-03-13T07:21:36.793Z,100.00
2023-03-13T07:24:07.320Z,100.00
2023-03-13T07:26:37.944Z,100.00
2023-03-13T07:29:08.680Z,100.00
2023-03-13T07:31:39.216Z,100.00
2023-03-13T07:34:09.625Z,100.00
2023-03-13T07:36:40.593Z,100.00
2023-03-13T07:39:11.073Z,100.00
2023-03-13T07:41:41.482Z,100.00
2023-03-13T07:44:12.161Z,100.00
2023-03-13T07:46:42.513Z,100.00
2023-03-13T07:49:13.457Z,100.00
2023-03-13T07:51:44.525Z,100.00
2023-03-13T07:54:13.814Z,100.00
2023-03-13T07:56:44.418Z,100.00
2023-03-13T07:59:14.644Z,100.00
2023-03-13T08:01:45.049Z,100.00
2023-03-13T08:04:15.585Z,100.00
2023-03-13T08:06:46.108Z,100.00
2023-03-13T08:09:16.586Z,100.00
2023-03-13T08:11:46.747Z,100.00
2023-03-13T08:14:17.256Z,100.00
2023-03-13T08:16:47.561Z,100.00
2023-03-13T08:19:17.990Z,100.00
2023-03-13T08:21:48.201Z,100.00
2023-03-13T08:24:18.806Z,100.00
2023-03-13T08:26:49.384Z,100.00
2023-03-13T08:29:19.381Z,100.00
2023-03-13T08:31:49.958Z,100.00
2023-03-13T08:34:20.492Z,100.00
2023-03-13T08:36:50.916Z,100.00
2023-03-13T08:39:21.125Z,100.00
2023-03-13T08:41:51.634Z,100.00
2023-03-13T08:44:22.155Z,100.00
2023-03-13T08:46:52.640Z,100.00
2023-03-13T08:49:23.159Z,100.00
2023-03-13T08:51:53.623Z,100.00
2023-03-13T08:54:24.240Z,100.00
2023-03-13T08:56:54.478Z,100.00
2023-03-13T08:59:24.839Z,100.00
2023-03-13T09:01:55.305Z,100.00
2023-03-13T09:04:25.811Z,100.00
2023-03-13T09:06:56.271Z,100.00
2023-03-13T09:09:26.912Z,100.00
2023-03-13T09:11:57.252Z,100.00
2023-03-13T09:14:27.387Z,100.00
2023-03-13T09:16:57.852Z,100.00
2023-03-13T09:19:28.389Z,100.00
2023-03-13T09:21:58.830Z,100.00
2023-03-13T09:24:29.324Z,100.00
2023-03-13T09:27:01.610Z,100.00
2023-03-13T09:29:30.325Z,100.00
2023-03-13T09:32:00.835Z,100.00
2023-03-13T09:34:31.253Z,100.00
2023-03-13T09:37:01.718Z,100.00
2023-03-13T09:39:32.199Z,100.00
2023-03-13T09:42:02.673Z,100.00
2023-03-13T09:44:33.159Z,100.00
2023-03-13T09:47:03.690Z,100.00
2023-03-13T09:49:37.242Z,100.00
2023-03-13T09:52:04.570Z,100.00
2023-03-13T09:54:35.112Z,100.00
2023-03-13T09:57:05.541Z,100.00
2023-03-13T09:59:36.000Z,100.00
2023-03-13T10:02:06.545Z,100.00
2023-03-13T10:04:38.258Z,100.00
2023-03-13T10:07:07.421Z,100.00
2023-03-13T10:09:37.980Z,100.00
2023-03-13T10:12:08.393Z,100.00
2023-03-13T10:14:38.812Z,100.00
2023-03-13T10:17:09.290Z,100.00
2023-03-13T10:19:39.769Z,100.00
2023-03-13T10:22:10.363Z,100.00
2023-03-13T10:24:42.059Z,100.00
2023-03-13T10:27:11.158Z,100.00
2023-03-13T10:29:41.680Z,99.81
2023-03-13T10:32:12.075Z,98.00
2023-03-13T10:34:42.518Z,96.47
2023-03-13T10:37:12.977Z,97.07
2023-03-13T10:39:43.422Z,98.37
2023-03-13T10:42:13.906Z,98.56
2023-03-13T10:44:44.328Z,98.46
2023-03-13T10:47:17.880Z,93.97
2023-03-13T10:49:45.233Z,94.89
2023-03-13T10:52:15.681Z,94.02
2023-03-13T10:54:46.149Z,95.17
2023-03-13T10:57:16.588Z,92.13
2023-03-13T10:59:47.052Z,92.16
2023-03-13T11:02:17.561Z,92.15
2023-03-13T11:04:47.984Z,92.19
2023-03-13T11:07:18.409Z,92.82
2023-03-13T11:09:48.927Z,92.95
2023-03-13T11:12:19.315Z,92.46
2023-03-13T11:14:49.812Z,92.61
2023-03-13T11:17:20.156Z,91.78
2023-03-13T11:19:53.086Z,91.95
2023-03-13T11:22:21.075Z,90.89
2023-03-13T11:24:51.447Z,90.09
2023-03-13T11:27:21.843Z,90.24
2023-03-13T11:29:52.300Z,90.35
2023-03-13T11:32:22.713Z,90.56
2023-03-13T11:34:53.012Z,90.28
2023-03-13T11:37:23.403Z,90.17
2023-03-13T11:39:53.823Z,92.14
2023-03-13T11:42:24.281Z,91.16
2023-03-13T11:44:54.619Z,90.69
2023-03-13T11:47:25.012Z,90.37
2023-03-13T11:49:55.439Z,92.02
2023-03-13T11:52:25.779Z,90.97
2023-03-13T11:54:56.195Z,94.63
2023-03-13T11:57:26.577Z,88.93
2023-03-13T11:59:57.000Z,89.59
2023-03-13T12:02:27.379Z,87.64
2023-03-13T12:04:57.809Z,87.84
2023-03-13T12:07:28.222Z,88.42
2023-03-13T12:09:58.541Z,85.97
2023-03-13T12:12:28.934Z,87.37
2023-03-13T12:14:59.325Z,85.60
2023-03-13T12:17:29.712Z,86.00
2023-03-13T12:20:00.120Z,85.51
2023-03-13T12:22:30.586Z,84.06
2023-03-13T12:25:00.900Z,84.59
2023-03-13T12:27:31.251Z,85.32
2023-03-13T12:30:01.633Z,86.35
2023-03-13T12:32:32.136Z,84.51
2023-03-13T12:35:02.412Z,85.25
2023-03-13T12:37:32.708Z,84.26
2023-03-13T12:40:03.105Z,84.34
2023-03-13T12:42:33.511Z,84.21
2023-03-13T12:45:03.843Z,85.06
2023-03-13T12:47:34.272Z,83.47
2023-03-13T12:50:04.584Z,82.62
2023-03-13T12:52:35.000Z,82.89
2023-03-13T12:55:05.337Z,82.40
2023-03-13T12:57:35.747Z,83.82
2023-03-13T13:00:06.053Z,84.60
2023-03-13T13:02:36.495Z,84.83
2023-03-13T13:05:06.804Z,83.57
2023-03-13T13:07:37.151Z,83.72
2023-03-13T13:10:07.570Z,83.29
2023-03-13T13:12:37.909Z,83.52
2023-03-13T13:15:08.275Z,81.75
2023-03-13T13:17:38.648Z,83.73
2023-03-13T13:20:08.956Z,85.15
2023-03-13T13:22:39.399Z,82.84
2023-03-13T13:25:09.848Z,80.23
2023-03-13T13:27:40.015Z,80.79
2023-03-13T13:30:10.353Z,82.00
2023-03-13T13:32:40.896Z,82.05
2023-03-13T13:35:11.058Z,80.17
2023-03-13T13:37:41.391Z,79.59
2023-03-13T13:40:14.941Z,79.63
2023-03-13T13:42:42.237Z,78.16
2023-03-13T13:45:12.423Z,76.63
2023-03-13T13:47:42.772Z,77.84
2023-03-13T13:50:13.116Z,79.13
2023-03-13T13:52:43.511Z,78.41
2023-03-13T13:55:13.800Z,75.92
2023-03-13T13:57:44.180Z,74.89
2023-03-13T14:00:14.518Z,75.28
2023-03-13T14:02:44.866Z,73.99
2023-03-13T14:05:15.313Z,74.11
2023-03-13T14:07:45.560Z,75.41
2023-03-13T14:10:15.900Z,74.22
2023-03-13T14:12:46.325Z,74.54
2023-03-13T14:15:16.594Z,74.22
2023-03-13T14:17:47.060Z,74.45
2023-03-13T14:20:17.297Z,76.17
2023-03-13T14:22:47.670Z,76.14
2023-03-13T14:25:18.011Z,74.85
2023-03-13T14:27:48.392Z,75.86
2023-03-13T14:30:18.745Z,77.68
2023-03-13T14:32:49.173Z,74.92
2023-03-13T14:35:19.462Z,75.20
2023-03-13T14:37:49.830Z,76.10
2023-03-13T14:40:20.238Z,75.40
2023-03-13T14:42:50.576Z,74.28
2023-03-13T14:45:20.922Z,76.45
2023-03-13T14:47:51.291Z,77.66
2023-03-13T14:50:21.654Z,78.39
2023-03-13T14:52:52.032Z,77.96
2023-03-13T14:55:22.416Z,77.92
2023-03-13T14:57:52.780Z,78.55
2023-03-13T15:00:23.103Z,78.70
2023-03-13T15:02:55.336Z,77.58
2023-03-13T15:05:23.828Z,77.28
2023-03-13T15:07:54.202Z,78.41
2023-03-13T15:10:24.568Z,78.25
2023-03-13T15:12:55.017Z,75.64
2023-03-13T15:15:25.313Z,75.59
2023-03-13T15:17:55.654Z,77.29
2023-03-13T15:20:26.089Z,75.91
2023-03-13T15:22:56.371Z,76.31
2023-03-13T15:25:26.739Z,74.76
2023-03-13T15:27:57.110Z,73.52
2023-03-13T15:30:27.457Z,74.68
2023-03-13T15:32:57.892Z,73.84
2023-03-13T15:35:28.216Z,73.72
2023-03-13T15:37:58.576Z,72.44
2023-03-13T15:40:28.937Z,73.69
2023-03-13T15:42:59.338Z,75.04
2023-03-13T15:45:29.682Z,73.43
2023-03-13T15:48:00.054Z,74.21
2023-03-13T15:50:30.400Z,73.50
2023-03-13T15:53:00.789Z,74.06
2023-03-13T15:55:31.152Z,73.71
2023-03-13T15:58:01.536Z,72.98
2023-03-13T16:00:31.902Z,74.42
2023-03-13T16:03:02.288Z,73.36
2023-03-13T16:05:32.650Z,72.43
2023-03-13T16:08:03.012Z,73.21
2023-03-13T16:10:33.381Z,72.23
2023-03-13T16:13:03.767Z,71.88
2023-03-13T16:15:34.131Z,73.17
2023-03-13T16:18:04.516Z,72.83
2023-03-13T16:20:34.885Z,71.41
2023-03-13T16:23:05.283Z,70.69
2023-03-13T16:25:35.647Z,71.23
2023-03-13T16:28:06.035Z,72.18
2023-03-13T16:30:36.397Z,71.20
2023-03-13T16:33:06.851Z,71.12
2023-03-13T16:35:37.222Z,70.86
2023-03-13T16:38:07.545Z,70.86
2023-03-13T16:40:37.948Z,70.96
2023-03-13T16:43:08.329Z,71.19
2023-03-13T16:45:38.681Z,72.28
2023-03-13T16:48:09.070Z,71.20
2023-03-13T16:50:39.465Z,71.32
2023-03-13T16:53:09.852Z,71.60
2023-03-13T16:55:40.282Z,71.45
2023-03-13T16:58:10.686Z,71.02
2023-03-13T17:00:41.044Z,71.83
2023-03-13T17:03:11.468Z,71.76
2023-03-13T17:05:41.937Z,72.25
2023-03-13T17:08:12.294Z,72.37
2023-03-13T17:10:42.694Z,72.27
2023-03-13T17:13:13.128Z,72.25
2023-03-13T17:15:43.521Z,72.08
2023-03-13T17:18:13.931Z,72.14
2023-03-13T17:20:44.328Z,72.26
2023-03-13T17:23:14.740Z,72.22
2023-03-13T17:25:45.154Z,72.79
2023-03-13T17:28:15.608Z,72.67
2023-03-13T17:30:45.980Z,72.57
2023-03-13T17:33:16.414Z,73.03
2023-03-13T17:35:46.844Z,73.23
2023-03-13T17:38:17.228Z,73.38
2023-03-13T17:40:47.754Z,73.76
2023-03-13T17:43:18.094Z,73.97
2023-03-13T17:45:48.519Z,74.25
2023-03-13T17:48:18.957Z,74.49
2023-03-13T17:50:49.357Z,75.04
2023-03-13T17:53:19.803Z,74.98
2023-03-13T17:55:50.218Z,75.20
2023-03-13T17:58:20.685Z,75.31
2023-03-13T18:00:51.100Z,75.90
2023-03-13T18:03:21.544Z,76.05
2023-03-13T18:05:52.023Z,76.18
2023-03-13T18:08:22.466Z,76.12
2023-03-13T18:10:53.137Z,76.53
2023-03-13T18:13:23.353Z,76.73
2023-03-13T18:15:53.967Z,77.05
2023-03-13T18:18:24.239Z,77.03
2023-03-13T18:20:54.684Z,77.21
2023-03-13T18:23:25.149Z,77.28
2023-03-13T18:25:55.598Z,77.46
2023-03-13T18:28:26.132Z,77.79
2023-03-13T18:30:56.533Z,77.57
2023-03-13T18:33:27.025Z,78.16
2023-03-13T18:35:57.476Z,77.62
2023-03-13T18:38:27.924Z,77.95
2023-03-13T18:40:58.358Z,78.13
2023-03-13T18:43:28.864Z,78.53
2023-03-13T18:45:59.389Z,78.50
2023-03-13T18:48:29.761Z,78.54
2023-03-13T18:51:00.192Z,78.33
2023-03-13T18:53:30.666Z,78.56
2023-03-13T18:56:00.847Z,78.78
2023-03-13T18:58:31.349Z,79.03
2023-03-13T19:01:01.841Z,79.20
2023-03-13T19:03:32.303Z,79.14
2023-03-13T19:06:02.771Z,79.64
2023-03-13T19:08:33.291Z,79.82
2023-03-13T19:11:03.743Z,79.84
2023-03-13T19:13:34.248Z,80.29
2023-03-13T19:16:04.678Z,80.39
2023-03-13T19:18:35.205Z,81.05
2023-03-13T19:21:05.679Z,81.35
2023-03-13T19:23:36.164Z,81.83
2023-03-13T19:26:06.683Z,82.04
2023-03-13T19:28:36.878Z,82.11
2023-03-13T19:31:07.340Z,81.81
2023-03-13T19:33:37.852Z,81.60
2023-03-13T19:36:08.320Z,81.36
2023-03-13T19:38:38.917Z,81.33
2023-03-13T19:41:09.286Z,81.57
2023-03-13T19:43:39.798Z,83.06
2023-03-13T19:46:10.308Z,81.91
2023-03-13T19:48:40.765Z,81.87
2023-03-13T19:51:11.249Z,82.26
2023-03-13T19:53:44.783Z,82.62
2023-03-13T19:56:12.227Z,82.85
2023-03-13T19:58:42.749Z,82.82
2023-03-13T20:01:17.534Z,82.95
2023-03-13T20:03:43.733Z,82.65
2023-03-13T20:06:14.266Z,82.73
2023-03-13T20:08:44.883Z,82.80
2023-03-13T20:11:14.925Z,82.85
2023-03-13T20:13:45.445Z,82.96
2023-03-13T20:16:15.948Z,83.27
2023-03-13T20:18:46.456Z,83.96
2023-03-13T20:21:16.984Z,83.33
2023-03-13T20:23:47.497Z,83.97
2023-03-13T20:26:18.013Z,84.09
2023-03-13T20:28:48.293Z,84.74
2023-03-13T20:31:18.805Z,84.65
2023-03-13T20:33:49.285Z,84.45
2023-03-13T20:36:19.777Z,84.33
2023-03-13T20:38:50.293Z,84.40
2023-03-13T20:41:20.755Z,84.42
2023-03-13T20:43:51.261Z,84.61
2023-03-13T20:46:21.887Z,84.96
2023-03-13T20:48:52.311Z,84.94
2023-03-13T20:51:23.090Z,84.97
2023-03-13T20:53:53.588Z,85.37
2023-03-13T20:56:24.016Z,85.17
2023-03-13T20:58:54.510Z,85.37
2023-03-13T21:01:26.392Z,86.01
2023-03-13T21:03:55.495Z,85.90
2023-03-13T21:06:26.010Z,85.85
2023-03-13T21:08:56.519Z,86.62
2023-03-13T21:11:27.022Z,87.92
2023-03-13T21:13:57.802Z,88.27
2023-03-13T21:16:28.622Z,88.62
2023-03-13T21:18:59.087Z,89.17
2023-03-13T21:21:29.590Z,89.33
2023-03-13T21:24:00.134Z,88.41
2023-03-13T21:26:30.283Z,87.79
2023-03-13T21:29:00.533Z,87.66
2023-03-13T21:31:30.851Z,88.09
2023-03-13T21:34:01.283Z,88.30
2023-03-13T21:36:31.807Z,87.40
2023-03-13T21:39:02.333Z,87.95
2023-03-13T21:41:32.523Z,87.44
2023-03-13T21:44:02.783Z,88.17
2023-03-13T21:46:33.533Z,87.40
2023-03-13T21:49:03.857Z,87.84
2023-03-13T21:51:34.401Z,88.05
2023-03-13T21:54:04.974Z,87.69
2023-03-13T21:56:35.485Z,87.77
2023-03-13T21:59:06.025Z,89.38
2023-03-13T22:01:36.545Z,89.27
2023-03-13T22:04:07.071Z,89.56
2023-03-13T22:06:37.617Z,89.01
2023-03-13T22:09:08.229Z,89.30
2023-03-13T22:11:38.700Z,89.53
2023-03-13T22:14:09.244Z,89.60
2023-03-13T22:16:39.504Z,90.52
2023-03-13T22:19:10.034Z,88.83
2023-03-13T22:21:40.586Z,88.64
2023-03-13T22:24:10.728Z,89.00
2023-03-13T22:26:41.262Z,88.61
2023-03-13T22:29:11.854Z,88.14
2023-03-13T22:31:42.334Z,88.02
2023-03-13T22:34:12.853Z,87.93
2023-03-13T22:36:43.402Z,87.80
2023-03-13T22:39:13.953Z,87.43
2023-03-13T22:41:44.428Z,87.51
2023-03-13T22:44:15.027Z,87.39
2023-03-13T22:46:48.529Z,87.29
2023-03-13T22:49:15.968Z,87.18
2023-03-13T22:51:46.476Z,87.10
2023-03-13T22:54:16.719Z,87.29
2023-03-13T22:56:47.246Z,87.01
2023-03-13T22:59:17.773Z,87.29
2023-03-13T23:01:48.285Z,86.65
2023-03-13T23:04:18.805Z,87.15
2023-03-13T23:06:49.324Z,87.82
2023-03-13T23:09:19.864Z,87.57
2023-03-13T23:11:50.353Z,87.19
2023-03-13T23:14:20.911Z,87.07
2023-03-13T23:16:51.391Z,87.25
2023-03-13T23:19:21.922Z,87.32
2023-03-13T23:21:52.438Z,89.19
2023-03-13T23:24:23.073Z,88.69
2023-03-13T23:26:53.514Z,91.09
2023-03-13T23:29:24.082Z,91.39
2023-03-13T23:31:54.605Z,92.36
2023-03-13T23:34:25.155Z,93.23
2023-03-13T23:36:55.721Z,92.50
2023-03-13T23:39:26.236Z,93.25
2023-03-13T23:41:56.768Z,93.39
2023-03-13T23:44:27.314Z,93.08
2023-03-13T23:46:57.870Z,93.91
2023-03-13T23:49:28.399Z,93.91
2023-03-13T23:51:58.896Z,93.44
2023-03-13T23:54:29.456Z,93.96
2023-03-13T23:56:59.981Z,94.41
2023-03-13T23:59:30.543Z,95.11
